woensdag 3 juni 2020 | Home | Bestenlijsten | Bestenlijsten NL | Calculators | Nieuws | Records | Uitslagen | VZA Ranglijsten | Weer |
 
Recent nieuws meer nieuws
02-06: Terugblik op het NK marathon 1964 in Vlissingen
28-05: Is snelheid een relatief begrip? Maar dan op herhaling
19-05: Snelheid een relatief begrip?
06-05: Mag huidig niveau hardlopen zomaar vergeleken worden met dat van de jaren 70?
28-04: Ook na 1 juni Run your own race
24-04: Zeeuws record 15 km van John Vermeule meest kansrijk om ooit te worden verbroken
 
Zoek tenminste met 3 tekens van wedstrijd, datum, plaats of atleet

Kreekloop

Terneuzen, woensdag 30 augustus 2017 - Organisatie: Scheldesport
9.6 km
PltsNaam
Tijdkm/umin/kmm/secgap
1  Mark VerhageZaamslag33.22minMse   17.263  3:294.80-
2  Erwin van den BroekeAxel35.20minM35   16.302  3:414.53+1:58
3  Sander van DoornTerneuzen35.54minMse   16.045  3:444.46+2:32
4  Erik GoossenTerneuzen36.14minM45   15.897  3:464.42+2:52
5  Martijn KoxWestdorpe37.05minM35   15.533  3:524.31+3:43
6  Lorenzo d'HontKoewacht38.49minMse   14.839  4:034.12+5:27
7  Leo BrackeAxel39.10minM50   14.706  4:054.09+5:48
8  Adriaan WielesTerneuzen39.21minM45   14.638  4:064.07+5:59
9  Endy SlockAxel39.25minM40   14.613  4:064.06+6:03
10  Ben van VlietTerneuzen39.27minM40   14.601  4:074.06+6:05
11  Allan van AltenAxel39.35minM40   14.552  4:074.04+6:13
12  Michael den HamerHoek39.43minM40   14.503  4:084.03+6:21
13  Stefan van den BroekeAxel39.54minMse   14.436  4:094.01+6:32
14  Evert KuijkTerneuzen40.19minM50   14.287  4:123.97+6:57
15  Marlon RoelsTerneuzen40.22minM45   14.269  4:123.96+7:00
16  Thomas WulffraatTerneuzen40.39minM35   14.170  4:143.94+7:17
17  Erik BollemanAxel41.27minM45   13.896  4:193.86+8:05
18  Alwin de ZeeuwTerneuzen41.42minM45   13.813  4:213.84+8:20
19  Bas JasperseTerneuzen41.56minM45   13.736  4:223.82+8:34
20  Menno den DekkerTerneuzen42.21minM45   13.601  4:253.78+8:59
21  Marnix van den BrandeClinge42.25minMse   13.580  4:253.77+9:03
22  Niek WielandAxel43.57minM40   13.106  4:353.64+10:35
23  Harold de MaatTerneuzen44.08minM45   13.051  4:363.63+10:46
24  Jochem de DijckerAxel44.21minM35   12.988  4:373.61+10:59
25  Ebe BlaauwTerneuzen44.26minM60   12.963  4:383.60+11:04
26  Peter van den BergHulst44.30minM50   12.944  4:383.60+11:08
27  Berry KnibbelerWestdorpe44.33minM55   12.929  4:383.59+11:11
28  Leon van BavinchovenTerneuzen44.59minM45   12.805  4:413.56+11:37
29  Bart van JoleTerneuzen45.39minMse   12.618  4:453.50+12:17
30  Rudi de CaluweSas van Gent45.43minM55   12.599  4:463.50+12:21
31  Astrid VerhageZuiddorpe45.47minV35   12.581  4:463.49+12:25
32  Patrick DobbelaarHoek45.48minM50   12.576  4:463.49+12:26
33  Martin de JaegerTerneuzen46.03minM45   12.508  4:483.47+12:41
34  Jos de KreekVogelwaarde46.04minM50   12.504  4:483.47+12:42
35  Fiona ReijersTerneuzen46.17minV40   12.445  4:493.46+12:55
36  Josa van der VlietTerneuzen46.18minV50   12.441  4:493.46+12:56
37  Inge de BooijGraauw46.21minVse   12.427  4:503.45+12:59
38  Aschwin RoegiersTerneuzen46.27minM45   12.400  4:503.44+13:05
39  Corine de JongeTerneuzen46.28minVse   12.396  4:503.44+13:06
40  Natasja BooijWalsoorden46.35minV40   12.365  4:513.43+13:13
41  Coen KaijserTerneuzen47.01minMse   12.251  4:543.40+13:39
42  Jan BoonmanAxel47.10minM65   12.212  4:553.39+13:48
43  Piet PijpelinkTerneuzen47.16minM50   12.186  4:553.39+13:54
44  Marion GoossenTerneuzen47.52minV45   12.033  4:593.34+14:30
45  Cor LeunisTerneuzen48.16minM55   11.934  5:023.31+14:54
46  Cor de JongeTerneuzen48.40minM55   11.836  5:043.29+15:18
47  Wendy van den BroekeAxel49.02minV35   11.747  5:063.26+15:40
48  Frans VerwilligenHulst49.18minM60   11.684  5:083.25+15:56
49  Emanuela BrackeAxel49.37minV45   11.609  5:103.22+16:15
50  Jack FolkersmaTerneuzen49.57minM45   11.532  5:123.20+16:35
51  Nadia BleyenbergNieuw-Namen50.03minVse   11.508  5:133.20+16:41
52  Johan UijtdehaagTerneuzen50.10minM35   11.482  5:143.19+16:48
53  Alex van LeuvenSint Jansteen50.26minM55   11.421  5:153.17+17:04
54  Edwin RiemensAxel51.11minM50   11.254  5:203.13+17:49
55  Leo HoekmaKoewacht52.44minM65   10.923  5:303.03+19:22
56  Wienanda KolbeekTerneuzen53.34minVse   10.753  5:352.99+20:12
57  Ilse NieskensBiervliet54.00minV50   10.667  5:382.96+20:38
58  Jan-Willem SlabbekoornHoek55.18minM50   10.416  5:462.89+21:56
59  Monique AdriaanseTerneuzen55.34minV50   10.366  5:472.88+22:12
60  Stefanie van de VisserHoek55.38minV35   10.354  5:482.88+22:16
61  Phyllis FranceschiTerneuzen55.54minV40   10.304  5:492.86+22:32
62  Ingrid JonesTerneuzen56.22minV45   10.219  5:522.84+23:00
63  Marieke van HeckeTerneuzen56.43minV35   10.156  5:542.82+23:21
64  Antoine van den BroekTerneuzen57.02minM35   10.099  5:562.81+23:40
65  Chantal SchilperoordtZaamslag57.06minV40   10.088  5:572.80+23:44
66  Rudy van de VeldeWachtebeke58.17minM50   9.883  6:042.75+24:55
67  Gerald MonteyneOosteeklo58.18minM50   9.880  6:042.74+24:56
68  Dominique De MeySint-Niklaas59.02minV50   9.757  6:092.71+25:40
69  Philip De VroeSleidinge59.08minM50   9.741  6:102.71+25:46
Mannen: 50 (72.46%) => M35=6 - M40=5 - M45=12 - M50=11 - M55=5 - M60=2 - M65=2 - Mse=7
Vrouwen: 19 (27.54%) => V35=4 - V40=4 - V45=3 - V50=4 - Vse=4

Overzicht Top3, winnares en aantal deelnemers van aanwezige edities

JaarWinnaarTijd2eTijd 3eTijdWinnaresTijd#

9.6 km

2019Mark Verhage33:07Liam de Mey34:01Sander van Doorn36:10Natasja de Booij44:0041
2018Mark Verhage33:43Erwin van den Broeke36:30Jeroen van den Broeke37:15Melissa ten Kate44:5347
2017Mark Verhage33:22Erwin van den Broeke35:20Sander van Doorn35:54Astrid Verhage45:4769
2016Mark Verhage35:32Erik Goossen37:06Frank van den Branden39:31Inge de Booij49:3347

9.2 km

2015Mark Verhage33:22Erwin van den Broeke33:52Pieter Pladdet34:10Nadia Bleyenberg45:4141
2014Mark Verhage32:16Erwin van den Broeke32:32Erik Goossen32:34Myrthe Faro41:3647
5.2 km
PltsNaam
Tijdkm/umin/kmm/secgap
1  Sander d'HontKuitaart16.38minMse   18.758  3:125.21-
2  Robert LafertinTerneuzen19.50minM35   15.731  3:494.37+3:12
3  Omar HillaertWestdorpe20.22minM45   15.319  3:554.26+3:44
4  Paul HaertjensBoekhoute21.45minM50   14.345  4:113.98+5:07
5  Ronald VerschurenTerneuzen21.57minM40   14.214  4:133.95+5:19
6  Micha TollenaarTerneuzen22.00minMse   14.182  4:143.94+5:22
7  Jos van GrembergheStekene22.08minM60   14.096  4:153.92+5:30
8  Bart de ClerckVogelwaarde23.19minMse   13.381  4:293.72+6:41
9  Wim BakkerTerneuzen23.25minM65   13.324  4:303.70+6:47
10  Manon WakkerTerneuzen26.48minVse   11.642  5:093.23+10:10
11  Daan DielemanZaamslag26.53minM65   11.606  5:103.22+10:15
12  Johan De ZeeuwAxel28.15minM55   11.044  5:263.07+11:37
13  Sheila BaarsAxel28.16minVse   11.038  5:263.07+11:38
14  Ilse de ZeeuwTerneuzen28.46minV45   10.846  5:323.01+12:08
15  Karin den DekkerTerneuzen29.02minV45   10.746  5:352.99+12:24
16  Danielle van der KooiTerneuzen29.03minV40   10.740  5:352.98+12:25
17  Carin WillemseTerneuzen29.54minV45   10.435  5:452.90+13:16
18  Tally ZamanTerneuzen29.54minV50   10.435  5:452.90+13:16
19  Tonny StrijdonkTerneuzen31.12minM70   10.000  6:002.78+14:34
20  Danielle XavierTerneuzen31.53minV40   9.786  6:082.72+15:15
21  Marjan SuijTerneuzen32.33minV50   9.585  6:162.66+15:55
22  Natasja FlorissenTerneuzen34.48minV45   8.966  6:422.49+18:10
23  Lidy JonkerTerneuzen37.18minV50   8.365  7:102.32+20:40
24  Greta de VylderSint-Gillis-Waas37.19minV70   8.361  7:112.32+20:41
Mannen: 12 (50%) => M35=1 - M40=1 - M45=1 - M50=1 - M55=1 - M60=1 - M65=2 - M70=1 - Mse=3
Vrouwen: 12 (50%) => V40=2 - V45=4 - V50=3 - V70=1 - Vse=2

Snelheid en tempo zijn berekend op de vermelde afstand. Bij een onjuiste afstand wijken deze uiteraard af!

Fouten melden via info@atletiekzeeland.nl Categorie fout? Mail dan geboortedatum. (geldt alleen voor Zeeuwen)

De server had 0.159 seconden nodig om deze lijst met 93 prestaties samen te stellen.

Terug naar boven


 
Atletiek Zeeland © 2020